<?xml version="1.0" encoding="UTF-8" standalone="no" ?>
<gpx xmlns="http://www.topografix.com/GPX/1/1" xmlns:xsi="http://www.w3.org/2001/XMLSchema-instance" xsi:schemaLocation="http://www.topografix.com/GPX/1/1 http://www.topografix.com/GPX/1/1/gpx.xsd" version="1.1" creator="VisuGPX - https://www.visugpx.com">
  <metadata>
    <name>Trélières</name>
    <desc><![CDATA[C\'est une sortie avec de bonnes descentes donc de bonnes montées. Pas de difficultés majeures. ]]></desc>
  </metadata>
  <trk>
    <name><![CDATA[Trelieres 24/08/11]]></name>
    <trkseg>
      <trkpt lat="47.27144" lon="-1.60918">
        <ele>50.400001525879</ele>
        <time>2011-08-24T15:47:23.000Z</time>
      </trkpt>
      <trkpt lat="47.27134" lon="-1.60911">
        <ele>50.599998474121</ele>
        <time>2011-08-24T15:47:31.000Z</time>
      </trkpt>
      <trkpt lat="47.27091" lon="-1.60896">
        <ele>51.400001525879</ele>
        <time>2011-08-24T15:47:47.000Z</time>
      </trkpt>
      <trkpt lat="47.27087" lon="-1.60879">
        <ele>51.400001525879</ele>
        <time>2011-08-24T15:47:51.000Z</time>
      </trkpt>
      <trkpt lat="47.2723" lon="-1.60739">
        <ele>46.599998474121</ele>
        <time>2011-08-24T15:48:23.000Z</time>
      </trkpt>
      <trkpt lat="47.27273" lon="-1.60688">
        <ele>48.799999237061</ele>
        <time>2011-08-24T15:48:38.000Z</time>
      </trkpt>
      <trkpt lat="47.27275" lon="-1.60675">
        <ele>49.400001525879</ele>
        <time>2011-08-24T15:48:43.000Z</time>
      </trkpt>
      <trkpt lat="47.27265" lon="-1.6066">
        <ele>50</ele>
        <time>2011-08-24T15:48:51.000Z</time>
      </trkpt>
      <trkpt lat="47.2726" lon="-1.60626">
        <ele>50.599998474121</ele>
        <time>2011-08-24T15:49:04.000Z</time>
      </trkpt>
      <trkpt lat="47.27267" lon="-1.606">
        <ele>51.200000762939</ele>
        <time>2011-08-24T15:49:11.000Z</time>
      </trkpt>
      <trkpt lat="47.27256" lon="-1.60544">
        <ele>51.599998474121</ele>
        <time>2011-08-24T15:49:24.000Z</time>
      </trkpt>
      <trkpt lat="47.27258" lon="-1.6051">
        <ele>52.200000762939</ele>
        <time>2011-08-24T15:49:30.000Z</time>
      </trkpt>
      <trkpt lat="47.27269" lon="-1.60495">
        <ele>52.799999237061</ele>
        <time>2011-08-24T15:49:35.000Z</time>
      </trkpt>
      <trkpt lat="47.2732" lon="-1.60471">
        <ele>54.799999237061</ele>
        <time>2011-08-24T15:49:53.000Z</time>
      </trkpt>
      <trkpt lat="47.2735" lon="-1.60441">
        <ele>54.799999237061</ele>
        <time>2011-08-24T15:49:58.000Z</time>
      </trkpt>
      <trkpt lat="47.27355" lon="-1.60407">
        <ele>54</ele>
        <time>2011-08-24T15:50:04.000Z</time>
      </trkpt>
      <trkpt lat="47.27355" lon="-1.60323">
        <ele>48.400001525879</ele>
        <time>2011-08-24T15:50:18.000Z</time>
      </trkpt>
      <trkpt lat="47.27303" lon="-1.60025">
        <ele>48.799999237061</ele>
        <time>2011-08-24T15:51:09.000Z</time>
      </trkpt>
      <trkpt lat="47.27269" lon="-1.6004">
        <ele>48.799999237061</ele>
        <time>2011-08-24T15:51:20.000Z</time>
      </trkpt>
      <trkpt lat="47.27245" lon="-1.60038">
        <ele>49</ele>
        <time>2011-08-24T15:51:25.000Z</time>
      </trkpt>
      <trkpt lat="47.27226" lon="-1.60012">
        <ele>49.400001525879</ele>
        <time>2011-08-24T15:51:31.000Z</time>
      </trkpt>
      <trkpt lat="47.27151" lon="-1.59999">
        <ele>49</ele>
        <time>2011-08-24T15:51:46.000Z</time>
      </trkpt>
      <trkpt lat="47.27106" lon="-1.59967">
        <ele>49</ele>
        <time>2011-08-24T15:51:56.000Z</time>
      </trkpt>
      <trkpt lat="47.27104" lon="-1.59937">
        <ele>49</ele>
        <time>2011-08-24T15:52:02.000Z</time>
      </trkpt>
      <trkpt lat="47.27097" lon="-1.59928">
        <ele>49</ele>
        <time>2011-08-24T15:52:05.000Z</time>
      </trkpt>
      <trkpt lat="47.27033" lon="-1.59945">
        <ele>47.599998474121</ele>
        <time>2011-08-24T15:52:18.000Z</time>
      </trkpt>
      <trkpt lat="47.27026" lon="-1.59965">
        <ele>47.599998474121</ele>
        <time>2011-08-24T15:52:23.000Z</time>
      </trkpt>
      <trkpt lat="47.27005" lon="-1.59984">
        <ele>47</ele>
        <time>2011-08-24T15:52:30.000Z</time>
      </trkpt>
      <trkpt lat="47.27003" lon="-1.59922">
        <ele>47</ele>
        <time>2011-08-24T15:52:43.000Z</time>
      </trkpt>
      <trkpt lat="47.27009" lon="-1.59896">
        <ele>47.599998474121</ele>
        <time>2011-08-24T15:52:48.000Z</time>
      </trkpt>
      <trkpt lat="47.27005" lon="-1.59875">
        <ele>48</ele>
        <time>2011-08-24T15:52:54.000Z</time>
      </trkpt>
      <trkpt lat="47.27009" lon="-1.59832">
        <ele>49</ele>
        <time>2011-08-24T15:53:01.000Z</time>
      </trkpt>
      <trkpt lat="47.27033" lon="-1.59813">
        <ele>49.400001525879</ele>
        <time>2011-08-24T15:53:07.000Z</time>
      </trkpt>
      <trkpt lat="47.27215" lon="-1.59718">
        <ele>50</ele>
        <time>2011-08-24T15:53:46.000Z</time>
      </trkpt>
      <trkpt lat="47.27248" lon="-1.59692">
        <ele>50</ele>
        <time>2011-08-24T15:53:54.000Z</time>
      </trkpt>
      <trkpt lat="47.27254" lon="-1.59652">
        <ele>49.599998474121</ele>
        <time>2011-08-24T15:53:59.000Z</time>
      </trkpt>
      <trkpt lat="47.27243" lon="-1.59525">
        <ele>48.200000762939</ele>
        <time>2011-08-24T15:54:14.000Z</time>
      </trkpt>
      <trkpt lat="47.27248" lon="-1.59476">
        <ele>48.200000762939</ele>
        <time>2011-08-24T15:54:20.000Z</time>
      </trkpt>
      <trkpt lat="47.27267" lon="-1.5942">
        <ele>48.400001525879</ele>
        <time>2011-08-24T15:54:27.000Z</time>
      </trkpt>
      <trkpt lat="47.27273" lon="-1.59357">
        <ele>48.200000762939</ele>
        <time>2011-08-24T15:54:34.000Z</time>
      </trkpt>
      <trkpt lat="47.27263" lon="-1.59312">
        <ele>48.200000762939</ele>
        <time>2011-08-24T15:54:40.000Z</time>
      </trkpt>
      <trkpt lat="47.27224" lon="-1.5928">
        <ele>48.799999237061</ele>
        <time>2011-08-24T15:54:49.000Z</time>
      </trkpt>
      <trkpt lat="47.27218" lon="-1.59257">
        <ele>48.799999237061</ele>
        <time>2011-08-24T15:54:54.000Z</time>
      </trkpt>
      <trkpt lat="47.27241" lon="-1.59227">
        <ele>48.200000762939</ele>
        <time>2011-08-24T15:55:00.000Z</time>
      </trkpt>
      <trkpt lat="47.27267" lon="-1.59212">
        <ele>47.400001525879</ele>
        <time>2011-08-24T15:55:04.000Z</time>
      </trkpt>
      <trkpt lat="47.27299" lon="-1.5922">
        <ele>46.799999237061</ele>
        <time>2011-08-24T15:55:09.000Z</time>
      </trkpt>
      <trkpt lat="47.27363" lon="-1.59297">
        <ele>46</ele>
        <time>2011-08-24T15:55:29.000Z</time>
      </trkpt>
      <trkpt lat="47.27378" lon="-1.59267">
        <ele>46</ele>
        <time>2011-08-24T15:55:48.000Z</time>
      </trkpt>
      <trkpt lat="47.27458" lon="-1.59044">
        <ele>44.400001525879</ele>
        <time>2011-08-24T15:56:32.000Z</time>
      </trkpt>
      <trkpt lat="47.27473" lon="-1.58986">
        <ele>44.599998474121</ele>
        <time>2011-08-24T15:56:43.000Z</time>
      </trkpt>
      <trkpt lat="47.27479" lon="-1.58943">
        <ele>44.200000762939</ele>
        <time>2011-08-24T15:56:51.000Z</time>
      </trkpt>
      <trkpt lat="47.27479" lon="-1.58898">
        <ele>44.200000762939</ele>
        <time>2011-08-24T15:56:58.000Z</time>
      </trkpt>
      <trkpt lat="47.27468" lon="-1.58815">
        <ele>44.200000762939</ele>
        <time>2011-08-24T15:57:12.000Z</time>
      </trkpt>
      <trkpt lat="47.27443" lon="-1.58705">
        <ele>44</ele>
        <time>2011-08-24T15:57:39.000Z</time>
      </trkpt>
      <trkpt lat="47.27454" lon="-1.58727">
        <ele>43.799999237061</ele>
        <time>2011-08-24T15:58:18.000Z</time>
      </trkpt>
      <trkpt lat="47.27473" lon="-1.58851">
        <ele>44.200000762939</ele>
        <time>2011-08-24T15:58:42.000Z</time>
      </trkpt>
      <trkpt lat="47.27488" lon="-1.5886">
        <ele>44</ele>
        <time>2011-08-24T15:58:47.000Z</time>
      </trkpt>
      <trkpt lat="47.27529" lon="-1.58834">
        <ele>44.200000762939</ele>
        <time>2011-08-24T15:58:58.000Z</time>
      </trkpt>
      <trkpt lat="47.27535" lon="-1.58819">
        <ele>44.400001525879</ele>
        <time>2011-08-24T15:59:02.000Z</time>
      </trkpt>
      <trkpt lat="47.27535" lon="-1.58785">
        <ele>44.799999237061</ele>
        <time>2011-08-24T15:59:09.000Z</time>
      </trkpt>
      <trkpt lat="47.27524" lon="-1.58755">
        <ele>44.799999237061</ele>
        <time>2011-08-24T15:59:21.000Z</time>
      </trkpt>
      <trkpt lat="47.27514" lon="-1.58692">
        <ele>46.400001525879</ele>
        <time>2011-08-24T15:59:43.000Z</time>
      </trkpt>
      <trkpt lat="47.27522" lon="-1.58748">
        <ele>44.799999237061</ele>
        <time>2011-08-24T15:59:55.000Z</time>
      </trkpt>
      <trkpt lat="47.27531" lon="-1.58763">
        <ele>44.799999237061</ele>
        <time>2011-08-24T16:00:00.000Z</time>
      </trkpt>
      <trkpt lat="47.27599" lon="-1.58729">
        <ele>48</ele>
        <time>2011-08-24T16:00:18.000Z</time>
      </trkpt>
      <trkpt lat="47.27636" lon="-1.58718">
        <ele>48.799999237061</ele>
        <time>2011-08-24T16:00:31.000Z</time>
      </trkpt>
      <trkpt lat="47.27803" lon="-1.58821">
        <ele>51</ele>
        <time>2011-08-24T16:01:11.000Z</time>
      </trkpt>
      <trkpt lat="47.27842" lon="-1.58855">
        <ele>51.400001525879</ele>
        <time>2011-08-24T16:01:20.000Z</time>
      </trkpt>
      <trkpt lat="47.27868" lon="-1.58909">
        <ele>52.200000762939</ele>
        <time>2011-08-24T16:01:28.000Z</time>
      </trkpt>
      <trkpt lat="47.27889" lon="-1.58933">
        <ele>52.200000762939</ele>
        <time>2011-08-24T16:01:33.000Z</time>
      </trkpt>
      <trkpt lat="47.27908" lon="-1.58943">
        <ele>52.200000762939</ele>
        <time>2011-08-24T16:01:37.000Z</time>
      </trkpt>
      <trkpt lat="47.27923" lon="-1.58965">
        <ele>52</ele>
        <time>2011-08-24T16:01:41.000Z</time>
      </trkpt>
      <trkpt lat="47.27945" lon="-1.59025">
        <ele>51.400001525879</ele>
        <time>2011-08-24T16:01:50.000Z</time>
      </trkpt>
      <trkpt lat="47.27992" lon="-1.59046">
        <ele>53</ele>
        <time>2011-08-24T16:01:59.000Z</time>
      </trkpt>
      <trkpt lat="47.28065" lon="-1.59128">
        <ele>53</ele>
        <time>2011-08-24T16:02:18.000Z</time>
      </trkpt>
      <trkpt lat="47.28086" lon="-1.5913">
        <ele>52.799999237061</ele>
        <time>2011-08-24T16:02:23.000Z</time>
      </trkpt>
      <trkpt lat="47.28187" lon="-1.58958">
        <ele>51</ele>
        <time>2011-08-24T16:02:47.000Z</time>
      </trkpt>
      <trkpt lat="47.28224" lon="-1.58888">
        <ele>49</ele>
        <time>2011-08-24T16:02:55.000Z</time>
      </trkpt>
      <trkpt lat="47.28267" lon="-1.58789">
        <ele>46.799999237061</ele>
        <time>2011-08-24T16:03:05.000Z</time>
      </trkpt>
      <trkpt lat="47.2831" lon="-1.58664">
        <ele>44.799999237061</ele>
        <time>2011-08-24T16:03:18.000Z</time>
      </trkpt>
      <trkpt lat="47.28308" lon="-1.58643">
        <ele>44.599998474121</ele>
        <time>2011-08-24T16:03:22.000Z</time>
      </trkpt>
      <trkpt lat="47.28299" lon="-1.58641">
        <ele>44.799999237061</ele>
        <time>2011-08-24T16:03:24.000Z</time>
      </trkpt>
      <trkpt lat="47.28011" lon="-1.58598">
        <ele>53.599998474121</ele>
        <time>2011-08-24T16:04:28.000Z</time>
      </trkpt>
      <trkpt lat="47.27891" lon="-1.58596">
        <ele>52.599998474121</ele>
        <time>2011-08-24T16:04:56.000Z</time>
      </trkpt>
      <trkpt lat="47.27823" lon="-1.58579">
        <ele>52</ele>
        <time>2011-08-24T16:05:19.000Z</time>
      </trkpt>
      <trkpt lat="47.27782" lon="-1.58555">
        <ele>52.400001525879</ele>
        <time>2011-08-24T16:05:28.000Z</time>
      </trkpt>
      <trkpt lat="47.27756" lon="-1.58551">
        <ele>53.200000762939</ele>
        <time>2011-08-24T16:05:34.000Z</time>
      </trkpt>
      <trkpt lat="47.27718" lon="-1.58531">
        <ele>52.200000762939</ele>
        <time>2011-08-24T16:05:41.000Z</time>
      </trkpt>
      <trkpt lat="47.277" lon="-1.58519">
        <ele>51.400001525879</ele>
        <time>2011-08-24T16:05:46.000Z</time>
      </trkpt>
      <trkpt lat="47.27636" lon="-1.58486">
        <ele>50.799999237061</ele>
        <time>2011-08-24T16:05:59.000Z</time>
      </trkpt>
      <trkpt lat="47.2761" lon="-1.58471">
        <ele>51.400001525879</ele>
        <time>2011-08-24T16:06:05.000Z</time>
      </trkpt>
      <trkpt lat="47.27599" lon="-1.58454">
        <ele>51.599998474121</ele>
        <time>2011-08-24T16:06:10.000Z</time>
      </trkpt>
      <trkpt lat="47.27599" lon="-1.58388">
        <ele>51</ele>
        <time>2011-08-24T16:06:19.000Z</time>
      </trkpt>
      <trkpt lat="47.27591" lon="-1.58373">
        <ele>50.799999237061</ele>
        <time>2011-08-24T16:06:21.000Z</time>
      </trkpt>
      <trkpt lat="47.27589" lon="-1.58336">
        <ele>50</ele>
        <time>2011-08-24T16:06:27.000Z</time>
      </trkpt>
      <trkpt lat="47.2761" lon="-1.58214">
        <ele>46.799999237061</ele>
        <time>2011-08-24T16:06:44.000Z</time>
      </trkpt>
      <trkpt lat="47.27612" lon="-1.58158">
        <ele>46.200000762939</ele>
        <time>2011-08-24T16:06:53.000Z</time>
      </trkpt>
      <trkpt lat="47.2767" lon="-1.57976">
        <ele>44.599998474121</ele>
        <time>2011-08-24T16:07:15.000Z</time>
      </trkpt>
      <trkpt lat="47.27788" lon="-1.57798">
        <ele>46</ele>
        <time>2011-08-24T16:07:54.000Z</time>
      </trkpt>
      <trkpt lat="47.27782" lon="-1.5775">
        <ele>47.200000762939</ele>
        <time>2011-08-24T16:08:01.000Z</time>
      </trkpt>
      <trkpt lat="47.27765" lon="-1.57686">
        <ele>47.599998474121</ele>
        <time>2011-08-24T16:08:11.000Z</time>
      </trkpt>
      <trkpt lat="47.27763" lon="-1.57637">
        <ele>47.400001525879</ele>
        <time>2011-08-24T16:08:17.000Z</time>
      </trkpt>
      <trkpt lat="47.27786" lon="-1.57212">
        <ele>40</ele>
        <time>2011-08-24T16:09:02.000Z</time>
      </trkpt>
      <trkpt lat="47.27795" lon="-1.5719">
        <ele>39.200000762939</ele>
        <time>2011-08-24T16:09:06.000Z</time>
      </trkpt>
      <trkpt lat="47.27911" lon="-1.57156">
        <ele>36.599998474121</ele>
        <time>2011-08-24T16:09:21.000Z</time>
      </trkpt>
      <trkpt lat="47.27992" lon="-1.57122">
        <ele>36.599998474121</ele>
        <time>2011-08-24T16:09:34.000Z</time>
      </trkpt>
      <trkpt lat="47.28044" lon="-1.57047">
        <ele>36.599998474121</ele>
        <time>2011-08-24T16:09:45.000Z</time>
      </trkpt>
      <trkpt lat="47.28099" lon="-1.56901">
        <ele>33.799999237061</ele>
        <time>2011-08-24T16:10:03.000Z</time>
      </trkpt>
      <trkpt lat="47.28091" lon="-1.56894">
        <ele>33.599998474121</ele>
        <time>2011-08-24T16:10:08.000Z</time>
      </trkpt>
      <trkpt lat="47.28014" lon="-1.56866">
        <ele>29.799999237061</ele>
        <time>2011-08-24T16:10:23.000Z</time>
      </trkpt>
      <trkpt lat="47.28005" lon="-1.56838">
        <ele>30.60000038147</ele>
        <time>2011-08-24T16:10:30.000Z</time>
      </trkpt>
      <trkpt lat="47.28014" lon="-1.56759">
        <ele>26.39999961853</ele>
        <time>2011-08-24T16:10:41.000Z</time>
      </trkpt>
      <trkpt lat="47.27988" lon="-1.56735">
        <ele>25</ele>
        <time>2011-08-24T16:10:50.000Z</time>
      </trkpt>
      <trkpt lat="47.27947" lon="-1.56744">
        <ele>26.200000762939</ele>
        <time>2011-08-24T16:11:02.000Z</time>
      </trkpt>
      <trkpt lat="47.27954" lon="-1.5674">
        <ele>25.60000038147</ele>
        <time>2011-08-24T16:11:20.000Z</time>
      </trkpt>
      <trkpt lat="47.27951" lon="-1.5671">
        <ele>21.60000038147</ele>
        <time>2011-08-24T16:11:37.000Z</time>
      </trkpt>
      <trkpt lat="47.27956" lon="-1.56697">
        <ele>19.799999237061</ele>
        <time>2011-08-24T16:11:43.000Z</time>
      </trkpt>
      <trkpt lat="47.27962" lon="-1.56686">
        <ele>18.39999961853</ele>
        <time>2011-08-24T16:11:48.000Z</time>
      </trkpt>
      <trkpt lat="47.27958" lon="-1.56667">
        <ele>16</ele>
        <time>2011-08-24T16:12:40.000Z</time>
      </trkpt>
      <trkpt lat="47.27945" lon="-1.56667">
        <ele>16</ele>
        <time>2011-08-24T16:14:09.000Z</time>
      </trkpt>
      <trkpt lat="47.27943" lon="-1.56673">
        <ele>16.799999237061</ele>
        <time>2011-08-24T16:14:17.000Z</time>
      </trkpt>
      <trkpt lat="47.27951" lon="-1.56673">
        <ele>16.799999237061</ele>
        <time>2011-08-24T16:14:22.000Z</time>
      </trkpt>
      <trkpt lat="47.27964" lon="-1.56686">
        <ele>18.39999961853</ele>
        <time>2011-08-24T16:14:31.000Z</time>
      </trkpt>
      <trkpt lat="47.28014" lon="-1.56692">
        <ele>18.799999237061</ele>
        <time>2011-08-24T16:14:45.000Z</time>
      </trkpt>
      <trkpt lat="47.28052" lon="-1.56688">
        <ele>16.799999237061</ele>
        <time>2011-08-24T16:14:56.000Z</time>
      </trkpt>
      <trkpt lat="47.28065" lon="-1.5669">
        <ele>16.60000038147</ele>
        <time>2011-08-24T16:14:59.000Z</time>
      </trkpt>
      <trkpt lat="47.28099" lon="-1.56675">
        <ele>15</ele>
        <time>2011-08-24T16:15:07.000Z</time>
      </trkpt>
      <trkpt lat="47.28121" lon="-1.56682">
        <ele>16.39999961853</ele>
        <time>2011-08-24T16:15:14.000Z</time>
      </trkpt>
      <trkpt lat="47.28142" lon="-1.56671">
        <ele>15.800000190735</ele>
        <time>2011-08-24T16:15:19.000Z</time>
      </trkpt>
      <trkpt lat="47.28168" lon="-1.56662">
        <ele>16</ele>
        <time>2011-08-24T16:15:25.000Z</time>
      </trkpt>
      <trkpt lat="47.28181" lon="-1.56654">
        <ele>15.800000190735</ele>
        <time>2011-08-24T16:15:29.000Z</time>
      </trkpt>
      <trkpt lat="47.28207" lon="-1.56617">
        <ele>14.60000038147</ele>
        <time>2011-08-24T16:15:34.000Z</time>
      </trkpt>
      <trkpt lat="47.28278" lon="-1.56579">
        <ele>10.60000038147</ele>
        <time>2011-08-24T16:15:49.000Z</time>
      </trkpt>
      <trkpt lat="47.28346" lon="-1.56615">
        <ele>12.60000038147</ele>
        <time>2011-08-24T16:16:13.000Z</time>
      </trkpt>
      <trkpt lat="47.28342" lon="-1.56708">
        <ele>19</ele>
        <time>2011-08-24T16:16:30.000Z</time>
      </trkpt>
      <trkpt lat="47.28348" lon="-1.56761">
        <ele>22.60000038147</ele>
        <time>2011-08-24T16:16:41.000Z</time>
      </trkpt>
      <trkpt lat="47.28342" lon="-1.56813">
        <ele>25.39999961853</ele>
        <time>2011-08-24T16:16:53.000Z</time>
      </trkpt>
      <trkpt lat="47.28363" lon="-1.5678">
        <ele>22.60000038147</ele>
        <time>2011-08-24T16:17:14.000Z</time>
      </trkpt>
      <trkpt lat="47.28376" lon="-1.56742">
        <ele>19.799999237061</ele>
        <time>2011-08-24T16:17:24.000Z</time>
      </trkpt>
      <trkpt lat="47.28372" lon="-1.56735">
        <ele>19.60000038147</ele>
        <time>2011-08-24T16:17:39.000Z</time>
      </trkpt>
      <trkpt lat="47.28404" lon="-1.56675">
        <ele>14.60000038147</ele>
        <time>2011-08-24T16:17:50.000Z</time>
      </trkpt>
      <trkpt lat="47.28406" lon="-1.56645">
        <ele>13</ele>
        <time>2011-08-24T16:17:55.000Z</time>
      </trkpt>
      <trkpt lat="47.2843" lon="-1.56589">
        <ele>10.60000038147</ele>
        <time>2011-08-24T16:18:04.000Z</time>
      </trkpt>
      <trkpt lat="47.28486" lon="-1.56579">
        <ele>12</ele>
        <time>2011-08-24T16:18:15.000Z</time>
      </trkpt>
      <trkpt lat="47.28496" lon="-1.56617">
        <ele>13.39999961853</ele>
        <time>2011-08-24T16:18:24.000Z</time>
      </trkpt>
      <trkpt lat="47.28492" lon="-1.56652">
        <ele>15</ele>
        <time>2011-08-24T16:18:32.000Z</time>
      </trkpt>
      <trkpt lat="47.28496" lon="-1.5669">
        <ele>16.60000038147</ele>
        <time>2011-08-24T16:18:40.000Z</time>
      </trkpt>
      <trkpt lat="47.28509" lon="-1.56705">
        <ele>16.799999237061</ele>
        <time>2011-08-24T16:18:44.000Z</time>
      </trkpt>
      <trkpt lat="47.28511" lon="-1.56722">
        <ele>17.200000762939</ele>
        <time>2011-08-24T16:18:49.000Z</time>
      </trkpt>
      <trkpt lat="47.28526" lon="-1.56748">
        <ele>17</ele>
        <time>2011-08-24T16:18:56.000Z</time>
      </trkpt>
      <trkpt lat="47.28589" lon="-1.56772">
        <ele>14.199999809265</ele>
        <time>2011-08-24T16:19:14.000Z</time>
      </trkpt>
      <trkpt lat="47.28608" lon="-1.56796">
        <ele>15.39999961853</ele>
        <time>2011-08-24T16:19:23.000Z</time>
      </trkpt>
      <trkpt lat="47.28642" lon="-1.56804">
        <ele>15.39999961853</ele>
        <time>2011-08-24T16:19:32.000Z</time>
      </trkpt>
      <trkpt lat="47.28659" lon="-1.56823">
        <ele>17</ele>
        <time>2011-08-24T16:19:41.000Z</time>
      </trkpt>
      <trkpt lat="47.28683" lon="-1.56819">
        <ele>16.39999961853</ele>
        <time>2011-08-24T16:19:48.000Z</time>
      </trkpt>
      <trkpt lat="47.28702" lon="-1.56828">
        <ele>17.39999961853</ele>
        <time>2011-08-24T16:20:09.000Z</time>
      </trkpt>
      <trkpt lat="47.28715" lon="-1.56821">
        <ele>16.799999237061</ele>
        <time>2011-08-24T16:20:17.000Z</time>
      </trkpt>
      <trkpt lat="47.2873" lon="-1.56823">
        <ele>17.200000762939</ele>
        <time>2011-08-24T16:20:26.000Z</time>
      </trkpt>
      <trkpt lat="47.28752" lon="-1.56832">
        <ele>17.799999237061</ele>
        <time>2011-08-24T16:20:38.000Z</time>
      </trkpt>
      <trkpt lat="47.28814" lon="-1.56836">
        <ele>16.799999237061</ele>
        <time>2011-08-24T16:21:21.000Z</time>
      </trkpt>
      <trkpt lat="47.28837" lon="-1.56832">
        <ele>16.200000762939</ele>
        <time>2011-08-24T16:21:26.000Z</time>
      </trkpt>
      <trkpt lat="47.28878" lon="-1.56787">
        <ele>16.799999237061</ele>
        <time>2011-08-24T16:21:40.000Z</time>
      </trkpt>
      <trkpt lat="47.28887" lon="-1.56748">
        <ele>14.800000190735</ele>
        <time>2011-08-24T16:21:48.000Z</time>
      </trkpt>
      <trkpt lat="47.2891" lon="-1.56697">
        <ele>13.199999809265</ele>
        <time>2011-08-24T16:21:57.000Z</time>
      </trkpt>
      <trkpt lat="47.28928" lon="-1.5663">
        <ele>15.199999809265</ele>
        <time>2011-08-24T16:22:11.000Z</time>
      </trkpt>
      <trkpt lat="47.28941" lon="-1.56602">
        <ele>16.60000038147</ele>
        <time>2011-08-24T16:22:16.000Z</time>
      </trkpt>
      <trkpt lat="47.28956" lon="-1.56594">
        <ele>16.39999961853</ele>
        <time>2011-08-24T16:22:21.000Z</time>
      </trkpt>
      <trkpt lat="47.28975" lon="-1.56607">
        <ele>15.800000190735</ele>
        <time>2011-08-24T16:22:29.000Z</time>
      </trkpt>
      <trkpt lat="47.28988" lon="-1.56607">
        <ele>15.60000038147</ele>
        <time>2011-08-24T16:23:04.000Z</time>
      </trkpt>
      <trkpt lat="47.29011" lon="-1.56677">
        <ele>18.39999961853</ele>
        <time>2011-08-24T16:23:22.000Z</time>
      </trkpt>
      <trkpt lat="47.29016" lon="-1.5672">
        <ele>20.200000762939</ele>
        <time>2011-08-24T16:23:32.000Z</time>
      </trkpt>
      <trkpt lat="47.29033" lon="-1.56742">
        <ele>19.799999237061</ele>
        <time>2011-08-24T16:23:52.000Z</time>
      </trkpt>
      <trkpt lat="47.29037" lon="-1.56761">
        <ele>20.799999237061</ele>
        <time>2011-08-24T16:24:02.000Z</time>
      </trkpt>
      <trkpt lat="47.29035" lon="-1.56778">
        <ele>22.200000762939</ele>
        <time>2011-08-24T16:24:07.000Z</time>
      </trkpt>
      <trkpt lat="47.2905" lon="-1.56789">
        <ele>22.60000038147</ele>
        <time>2011-08-24T16:24:12.000Z</time>
      </trkpt>
      <trkpt lat="47.29059" lon="-1.56796">
        <ele>23</ele>
        <time>2011-08-24T16:24:15.000Z</time>
      </trkpt>
      <trkpt lat="47.29102" lon="-1.56808">
        <ele>24</ele>
        <time>2011-08-24T16:24:24.000Z</time>
      </trkpt>
      <trkpt lat="47.29166" lon="-1.56789">
        <ele>20</ele>
        <time>2011-08-24T16:24:34.000Z</time>
      </trkpt>
      <trkpt lat="47.29194" lon="-1.56772">
        <ele>17.200000762939</ele>
        <time>2011-08-24T16:24:40.000Z</time>
      </trkpt>
      <trkpt lat="47.29226" lon="-1.56768">
        <ele>16</ele>
        <time>2011-08-24T16:24:52.000Z</time>
      </trkpt>
      <trkpt lat="47.2923" lon="-1.56778">
        <ele>17</ele>
        <time>2011-08-24T16:25:04.000Z</time>
      </trkpt>
      <trkpt lat="47.2923" lon="-1.56768">
        <ele>16</ele>
        <time>2011-08-24T16:25:13.000Z</time>
      </trkpt>
      <trkpt lat="47.29245" lon="-1.56765">
        <ele>15.39999961853</ele>
        <time>2011-08-24T16:25:46.000Z</time>
      </trkpt>
      <trkpt lat="47.29258" lon="-1.5678">
        <ele>16.60000038147</ele>
        <time>2011-08-24T16:26:47.000Z</time>
      </trkpt>
      <trkpt lat="47.29262" lon="-1.56817">
        <ele>19.39999961853</ele>
        <time>2011-08-24T16:27:00.000Z</time>
      </trkpt>
      <trkpt lat="47.29243" lon="-1.56825">
        <ele>21.39999961853</ele>
        <time>2011-08-24T16:27:11.000Z</time>
      </trkpt>
      <trkpt lat="47.29226" lon="-1.56892">
        <ele>26.39999961853</ele>
        <time>2011-08-24T16:27:37.000Z</time>
      </trkpt>
      <trkpt lat="47.29213" lon="-1.56914">
        <ele>28.799999237061</ele>
        <time>2011-08-24T16:27:47.000Z</time>
      </trkpt>
      <trkpt lat="47.29202" lon="-1.56926">
        <ele>29.799999237061</ele>
        <time>2011-08-24T16:27:55.000Z</time>
      </trkpt>
      <trkpt lat="47.29142" lon="-1.56965">
        <ele>32.200000762939</ele>
        <time>2011-08-24T16:28:25.000Z</time>
      </trkpt>
      <trkpt lat="47.29108" lon="-1.57006">
        <ele>32.799999237061</ele>
        <time>2011-08-24T16:28:45.000Z</time>
      </trkpt>
      <trkpt lat="47.29071" lon="-1.57029">
        <ele>33.799999237061</ele>
        <time>2011-08-24T16:28:52.000Z</time>
      </trkpt>
      <trkpt lat="47.29048" lon="-1.57074">
        <ele>34.599998474121</ele>
        <time>2011-08-24T16:29:05.000Z</time>
      </trkpt>
      <trkpt lat="47.29024" lon="-1.57105">
        <ele>35.799999237061</ele>
        <time>2011-08-24T16:29:20.000Z</time>
      </trkpt>
      <trkpt lat="47.29039" lon="-1.57143">
        <ele>34.799999237061</ele>
        <time>2011-08-24T16:30:07.000Z</time>
      </trkpt>
      <trkpt lat="47.29033" lon="-1.5722">
        <ele>34</ele>
        <time>2011-08-24T16:30:16.000Z</time>
      </trkpt>
      <trkpt lat="47.29041" lon="-1.57268">
        <ele>32.599998474121</ele>
        <time>2011-08-24T16:30:24.000Z</time>
      </trkpt>
      <trkpt lat="47.29044" lon="-1.57407">
        <ele>31.799999237061</ele>
        <time>2011-08-24T16:30:46.000Z</time>
      </trkpt>
      <trkpt lat="47.29039" lon="-1.57495">
        <ele>31.200000762939</ele>
        <time>2011-08-24T16:30:57.000Z</time>
      </trkpt>
      <trkpt lat="47.29026" lon="-1.57555">
        <ele>32</ele>
        <time>2011-08-24T16:31:07.000Z</time>
      </trkpt>
      <trkpt lat="47.29033" lon="-1.57559">
        <ele>31.60000038147</ele>
        <time>2011-08-24T16:31:11.000Z</time>
      </trkpt>
      <trkpt lat="47.29074" lon="-1.57555">
        <ele>29.60000038147</ele>
        <time>2011-08-24T16:31:19.000Z</time>
      </trkpt>
      <trkpt lat="47.29164" lon="-1.57581">
        <ele>23</ele>
        <time>2011-08-24T16:31:33.000Z</time>
      </trkpt>
      <trkpt lat="47.29183" lon="-1.57568">
        <ele>21.39999961853</ele>
        <time>2011-08-24T16:31:37.000Z</time>
      </trkpt>
      <trkpt lat="47.29196" lon="-1.57534">
        <ele>20</ele>
        <time>2011-08-24T16:31:41.000Z</time>
      </trkpt>
      <trkpt lat="47.29209" lon="-1.57531">
        <ele>19.200000762939</ele>
        <time>2011-08-24T16:31:45.000Z</time>
      </trkpt>
      <trkpt lat="47.29239" lon="-1.57555">
        <ele>17.60000038147</ele>
        <time>2011-08-24T16:31:50.000Z</time>
      </trkpt>
      <trkpt lat="47.2922" lon="-1.57613">
        <ele>19.39999961853</ele>
        <time>2011-08-24T16:32:03.000Z</time>
      </trkpt>
      <trkpt lat="47.292" lon="-1.57708">
        <ele>20.60000038147</ele>
        <time>2011-08-24T16:32:18.000Z</time>
      </trkpt>
      <trkpt lat="47.29213" lon="-1.57793">
        <ele>21.39999961853</ele>
        <time>2011-08-24T16:32:40.000Z</time>
      </trkpt>
      <trkpt lat="47.29224" lon="-1.57823">
        <ele>22.200000762939</ele>
        <time>2011-08-24T16:32:47.000Z</time>
      </trkpt>
      <trkpt lat="47.29239" lon="-1.57838">
        <ele>22.799999237061</ele>
        <time>2011-08-24T16:32:52.000Z</time>
      </trkpt>
      <trkpt lat="47.29234" lon="-1.57862">
        <ele>23.200000762939</ele>
        <time>2011-08-24T16:33:01.000Z</time>
      </trkpt>
      <trkpt lat="47.29286" lon="-1.57913">
        <ele>27.39999961853</ele>
        <time>2011-08-24T16:33:19.000Z</time>
      </trkpt>
      <trkpt lat="47.29329" lon="-1.57986">
        <ele>33.200000762939</ele>
        <time>2011-08-24T16:33:44.000Z</time>
      </trkpt>
      <trkpt lat="47.29346" lon="-1.58031">
        <ele>35</ele>
        <time>2011-08-24T16:34:00.000Z</time>
      </trkpt>
      <trkpt lat="47.29357" lon="-1.58038">
        <ele>35.200000762939</ele>
        <time>2011-08-24T16:34:05.000Z</time>
      </trkpt>
      <trkpt lat="47.29385" lon="-1.58038">
        <ele>35.200000762939</ele>
        <time>2011-08-24T16:34:16.000Z</time>
      </trkpt>
      <trkpt lat="47.29398" lon="-1.58066">
        <ele>36.200000762939</ele>
        <time>2011-08-24T16:34:23.000Z</time>
      </trkpt>
      <trkpt lat="47.2943" lon="-1.58165">
        <ele>38.599998474121</ele>
        <time>2011-08-24T16:34:42.000Z</time>
      </trkpt>
      <trkpt lat="47.29428" lon="-1.58231">
        <ele>38</ele>
        <time>2011-08-24T16:34:53.000Z</time>
      </trkpt>
      <trkpt lat="47.29443" lon="-1.58287">
        <ele>37.200000762939</ele>
        <time>2011-08-24T16:35:04.000Z</time>
      </trkpt>
      <trkpt lat="47.29458" lon="-1.58368">
        <ele>36.200000762939</ele>
        <time>2011-08-24T16:35:16.000Z</time>
      </trkpt>
      <trkpt lat="47.29453" lon="-1.58394">
        <ele>36</ele>
        <time>2011-08-24T16:35:20.000Z</time>
      </trkpt>
      <trkpt lat="47.29434" lon="-1.58439">
        <ele>34.599998474121</ele>
        <time>2011-08-24T16:35:27.000Z</time>
      </trkpt>
      <trkpt lat="47.29458" lon="-1.58637">
        <ele>33.400001525879</ele>
        <time>2011-08-24T16:36:06.000Z</time>
      </trkpt>
      <trkpt lat="47.29451" lon="-1.5869">
        <ele>34.200000762939</ele>
        <time>2011-08-24T16:36:17.000Z</time>
      </trkpt>
      <trkpt lat="47.2946" lon="-1.58774">
        <ele>35.400001525879</ele>
        <time>2011-08-24T16:36:32.000Z</time>
      </trkpt>
      <trkpt lat="47.29447" lon="-1.5881">
        <ele>35.799999237061</ele>
        <time>2011-08-24T16:36:39.000Z</time>
      </trkpt>
      <trkpt lat="47.29466" lon="-1.58999">
        <ele>42.200000762939</ele>
        <time>2011-08-24T16:37:20.000Z</time>
      </trkpt>
      <trkpt lat="47.29441" lon="-1.5904">
        <ele>42.400001525879</ele>
        <time>2011-08-24T16:37:33.000Z</time>
      </trkpt>
      <trkpt lat="47.29419" lon="-1.59061">
        <ele>42.200000762939</ele>
        <time>2011-08-24T16:37:38.000Z</time>
      </trkpt>
      <trkpt lat="47.29395" lon="-1.59124">
        <ele>44.599998474121</ele>
        <time>2011-08-24T16:37:50.000Z</time>
      </trkpt>
      <trkpt lat="47.29378" lon="-1.59141">
        <ele>45</ele>
        <time>2011-08-24T16:37:56.000Z</time>
      </trkpt>
      <trkpt lat="47.29372" lon="-1.59177">
        <ele>47</ele>
        <time>2011-08-24T16:38:05.000Z</time>
      </trkpt>
      <trkpt lat="47.29387" lon="-1.59222">
        <ele>50</ele>
        <time>2011-08-24T16:38:17.000Z</time>
      </trkpt>
      <trkpt lat="47.29402" lon="-1.59353">
        <ele>55.799999237061</ele>
        <time>2011-08-24T16:38:47.000Z</time>
      </trkpt>
      <trkpt lat="47.29404" lon="-1.59476">
        <ele>57.400001525879</ele>
        <time>2011-08-24T16:39:17.000Z</time>
      </trkpt>
      <trkpt lat="47.29417" lon="-1.59596">
        <ele>56.799999237061</ele>
        <time>2011-08-24T16:39:50.000Z</time>
      </trkpt>
      <trkpt lat="47.29423" lon="-1.59731">
        <ele>55.200000762939</ele>
        <time>2011-08-24T16:40:10.000Z</time>
      </trkpt>
      <trkpt lat="47.29449" lon="-1.60224">
        <ele>59</ele>
        <time>2011-08-24T16:41:21.000Z</time>
      </trkpt>
      <trkpt lat="47.29443" lon="-1.60244">
        <ele>58.599998474121</ele>
        <time>2011-08-24T16:41:29.000Z</time>
      </trkpt>
      <trkpt lat="47.29413" lon="-1.6028">
        <ele>57.799999237061</ele>
        <time>2011-08-24T16:41:37.000Z</time>
      </trkpt>
      <trkpt lat="47.29411" lon="-1.6031">
        <ele>57.599998474121</ele>
        <time>2011-08-24T16:41:42.000Z</time>
      </trkpt>
      <trkpt lat="47.29627" lon="-1.60763">
        <ele>65</ele>
        <time>2011-08-24T16:43:04.000Z</time>
      </trkpt>
      <trkpt lat="47.29934" lon="-1.60456">
        <ele>64.199996948242</ele>
        <time>2011-08-24T16:44:16.000Z</time>
      </trkpt>
      <trkpt lat="47.30001" lon="-1.6042">
        <ele>63.799999237061</ele>
        <time>2011-08-24T16:44:28.000Z</time>
      </trkpt>
      <trkpt lat="47.30018" lon="-1.6042">
        <ele>63.400001525879</ele>
        <time>2011-08-24T16:44:31.000Z</time>
      </trkpt>
      <trkpt lat="47.30022" lon="-1.60426">
        <ele>63.200000762939</ele>
        <time>2011-08-24T16:44:32.000Z</time>
      </trkpt>
      <trkpt lat="47.30297" lon="-1.60825">
        <ele>59</ele>
        <time>2011-08-24T16:45:32.000Z</time>
      </trkpt>
      <trkpt lat="47.30318" lon="-1.60842">
        <ele>59.599998474121</ele>
        <time>2011-08-24T16:45:36.000Z</time>
      </trkpt>
      <trkpt lat="47.3035" lon="-1.60842">
        <ele>60.599998474121</ele>
        <time>2011-08-24T16:45:41.000Z</time>
      </trkpt>
      <trkpt lat="47.30468" lon="-1.60862">
        <ele>60.400001525879</ele>
        <time>2011-08-24T16:46:04.000Z</time>
      </trkpt>
      <trkpt lat="47.30503" lon="-1.6086">
        <ele>59</ele>
        <time>2011-08-24T16:46:09.000Z</time>
      </trkpt>
      <trkpt lat="47.30548" lon="-1.60836">
        <ele>56.400001525879</ele>
        <time>2011-08-24T16:46:16.000Z</time>
      </trkpt>
      <trkpt lat="47.30638" lon="-1.6081">
        <ele>52</ele>
        <time>2011-08-24T16:46:29.000Z</time>
      </trkpt>
      <trkpt lat="47.30679" lon="-1.60782">
        <ele>51.200000762939</ele>
        <time>2011-08-24T16:46:35.000Z</time>
      </trkpt>
      <trkpt lat="47.30739" lon="-1.60709">
        <ele>48</ele>
        <time>2011-08-24T16:46:48.000Z</time>
      </trkpt>
      <trkpt lat="47.30749" lon="-1.60707">
        <ele>47.400001525879</ele>
        <time>2011-08-24T16:46:51.000Z</time>
      </trkpt>
      <trkpt lat="47.30777" lon="-1.60744">
        <ele>47.200000762939</ele>
        <time>2011-08-24T16:46:58.000Z</time>
      </trkpt>
      <trkpt lat="47.30797" lon="-1.6078">
        <ele>45.799999237061</ele>
        <time>2011-08-24T16:47:02.000Z</time>
      </trkpt>
      <trkpt lat="47.30807" lon="-1.60842">
        <ele>42.400001525879</ele>
        <time>2011-08-24T16:47:09.000Z</time>
      </trkpt>
      <trkpt lat="47.30814" lon="-1.60847">
        <ele>41.599998474121</ele>
        <time>2011-08-24T16:47:11.000Z</time>
      </trkpt>
      <trkpt lat="47.30867" lon="-1.60804">
        <ele>40.400001525879</ele>
        <time>2011-08-24T16:47:20.000Z</time>
      </trkpt>
      <trkpt lat="47.30928" lon="-1.60763">
        <ele>38.599998474121</ele>
        <time>2011-08-24T16:47:30.000Z</time>
      </trkpt>
      <trkpt lat="47.3102" lon="-1.6075">
        <ele>41.400001525879</ele>
        <time>2011-08-24T16:47:51.000Z</time>
      </trkpt>
      <trkpt lat="47.31106" lon="-1.60722">
        <ele>43.799999237061</ele>
        <time>2011-08-24T16:48:09.000Z</time>
      </trkpt>
      <trkpt lat="47.31161" lon="-1.60711">
        <ele>44.400001525879</ele>
        <time>2011-08-24T16:48:21.000Z</time>
      </trkpt>
      <trkpt lat="47.31181" lon="-1.60711">
        <ele>44.599998474121</ele>
        <time>2011-08-24T16:48:25.000Z</time>
      </trkpt>
      <trkpt lat="47.31226" lon="-1.60726">
        <ele>45.200000762939</ele>
        <time>2011-08-24T16:48:34.000Z</time>
      </trkpt>
      <trkpt lat="47.31256" lon="-1.60722">
        <ele>45.400001525879</ele>
        <time>2011-08-24T16:48:39.000Z</time>
      </trkpt>
      <trkpt lat="47.31333" lon="-1.60703">
        <ele>42</ele>
        <time>2011-08-24T16:48:52.000Z</time>
      </trkpt>
      <trkpt lat="47.31374" lon="-1.60669">
        <ele>40</ele>
        <time>2011-08-24T16:49:00.000Z</time>
      </trkpt>
      <trkpt lat="47.3144" lon="-1.60632">
        <ele>34.599998474121</ele>
        <time>2011-08-24T16:49:11.000Z</time>
      </trkpt>
      <trkpt lat="47.3147" lon="-1.60649">
        <ele>31.200000762939</ele>
        <time>2011-08-24T16:49:16.000Z</time>
      </trkpt>
      <trkpt lat="47.31522" lon="-1.60656">
        <ele>25</ele>
        <time>2011-08-24T16:49:23.000Z</time>
      </trkpt>
      <trkpt lat="47.31535" lon="-1.60679">
        <ele>23.60000038147</ele>
        <time>2011-08-24T16:49:27.000Z</time>
      </trkpt>
      <trkpt lat="47.31531" lon="-1.60748">
        <ele>23.799999237061</ele>
        <time>2011-08-24T16:49:34.000Z</time>
      </trkpt>
      <trkpt lat="47.31545" lon="-1.60855">
        <ele>20.60000038147</ele>
        <time>2011-08-24T16:49:48.000Z</time>
      </trkpt>
      <trkpt lat="47.31603" lon="-1.61087">
        <ele>28.39999961853</ele>
        <time>2011-08-24T16:51:13.000Z</time>
      </trkpt>
      <trkpt lat="47.31621" lon="-1.61119">
        <ele>28</ele>
        <time>2011-08-24T16:51:21.000Z</time>
      </trkpt>
      <trkpt lat="47.3164" lon="-1.61141">
        <ele>27.200000762939</ele>
        <time>2011-08-24T16:51:27.000Z</time>
      </trkpt>
      <trkpt lat="47.31687" lon="-1.61173">
        <ele>25.200000762939</ele>
        <time>2011-08-24T16:51:35.000Z</time>
      </trkpt>
      <trkpt lat="47.31741" lon="-1.61194">
        <ele>24.200000762939</ele>
        <time>2011-08-24T16:51:42.000Z</time>
      </trkpt>
      <trkpt lat="47.31775" lon="-1.61235">
        <ele>23.799999237061</ele>
        <time>2011-08-24T16:51:47.000Z</time>
      </trkpt>
      <trkpt lat="47.31831" lon="-1.61383">
        <ele>26.60000038147</ele>
        <time>2011-08-24T16:52:02.000Z</time>
      </trkpt>
      <trkpt lat="47.31874" lon="-1.6152">
        <ele>26.200000762939</ele>
        <time>2011-08-24T16:52:17.000Z</time>
      </trkpt>
      <trkpt lat="47.31882" lon="-1.61566">
        <ele>25.200000762939</ele>
        <time>2011-08-24T16:52:23.000Z</time>
      </trkpt>
      <trkpt lat="47.3188" lon="-1.61611">
        <ele>25.60000038147</ele>
        <time>2011-08-24T16:52:33.000Z</time>
      </trkpt>
      <trkpt lat="47.31897" lon="-1.61645">
        <ele>23.39999961853</ele>
        <time>2011-08-24T16:52:47.000Z</time>
      </trkpt>
      <trkpt lat="47.31891" lon="-1.61699">
        <ele>25</ele>
        <time>2011-08-24T16:53:09.000Z</time>
      </trkpt>
      <trkpt lat="47.31859" lon="-1.61808">
        <ele>29.60000038147</ele>
        <time>2011-08-24T16:53:30.000Z</time>
      </trkpt>
      <trkpt lat="47.31833" lon="-1.61851">
        <ele>33.200000762939</ele>
        <time>2011-08-24T16:53:43.000Z</time>
      </trkpt>
      <trkpt lat="47.31835" lon="-1.61857">
        <ele>32.799999237061</ele>
        <time>2011-08-24T16:53:46.000Z</time>
      </trkpt>
      <trkpt lat="47.31814" lon="-1.61881">
        <ele>32.400001525879</ele>
        <time>2011-08-24T16:53:56.000Z</time>
      </trkpt>
      <trkpt lat="47.31809" lon="-1.61909">
        <ele>31.39999961853</ele>
        <time>2011-08-24T16:54:04.000Z</time>
      </trkpt>
      <trkpt lat="47.31773" lon="-1.61937">
        <ele>30.60000038147</ele>
        <time>2011-08-24T16:54:16.000Z</time>
      </trkpt>
      <trkpt lat="47.31764" lon="-1.6196">
        <ele>29.60000038147</ele>
        <time>2011-08-24T16:54:21.000Z</time>
      </trkpt>
      <trkpt lat="47.31788" lon="-1.62098">
        <ele>32.200000762939</ele>
        <time>2011-08-24T16:54:54.000Z</time>
      </trkpt>
      <trkpt lat="47.31794" lon="-1.62072">
        <ele>32</ele>
        <time>2011-08-24T16:55:08.000Z</time>
      </trkpt>
      <trkpt lat="47.31814" lon="-1.62059">
        <ele>32.599998474121</ele>
        <time>2011-08-24T16:55:14.000Z</time>
      </trkpt>
      <trkpt lat="47.31829" lon="-1.62057">
        <ele>33.400001525879</ele>
        <time>2011-08-24T16:55:20.000Z</time>
      </trkpt>
      <trkpt lat="47.31837" lon="-1.62076">
        <ele>35.799999237061</ele>
        <time>2011-08-24T16:55:30.000Z</time>
      </trkpt>
      <trkpt lat="47.31833" lon="-1.62098">
        <ele>37.200000762939</ele>
        <time>2011-08-24T16:55:39.000Z</time>
      </trkpt>
      <trkpt lat="47.31844" lon="-1.62136">
        <ele>37.799999237061</ele>
        <time>2011-08-24T16:55:53.000Z</time>
      </trkpt>
      <trkpt lat="47.31865" lon="-1.62153">
        <ele>37.599998474121</ele>
        <time>2011-08-24T16:56:02.000Z</time>
      </trkpt>
      <trkpt lat="47.3187" lon="-1.62201">
        <ele>38.599998474121</ele>
        <time>2011-08-24T16:56:23.000Z</time>
      </trkpt>
      <trkpt lat="47.31859" lon="-1.62239">
        <ele>38.799999237061</ele>
        <time>2011-08-24T16:56:36.000Z</time>
      </trkpt>
      <trkpt lat="47.31859" lon="-1.62304">
        <ele>38</ele>
        <time>2011-08-24T16:56:52.000Z</time>
      </trkpt>
      <trkpt lat="47.3187" lon="-1.62321">
        <ele>38</ele>
        <time>2011-08-24T16:56:57.000Z</time>
      </trkpt>
      <trkpt lat="47.31884" lon="-1.62323">
        <ele>38.400001525879</ele>
        <time>2011-08-24T16:57:02.000Z</time>
      </trkpt>
      <trkpt lat="47.31928" lon="-1.62301">
        <ele>37.400001525879</ele>
        <time>2011-08-24T16:57:14.000Z</time>
      </trkpt>
      <trkpt lat="47.31951" lon="-1.62293">
        <ele>32.799999237061</ele>
        <time>2011-08-24T16:57:20.000Z</time>
      </trkpt>
      <trkpt lat="47.31932" lon="-1.62299">
        <ele>36.599998474121</ele>
        <time>2011-08-24T17:04:20.000Z</time>
      </trkpt>
      <trkpt lat="47.31953" lon="-1.62293">
        <ele>32.400001525879</ele>
        <time>2011-08-24T17:04:46.000Z</time>
      </trkpt>
      <trkpt lat="47.31951" lon="-1.62286">
        <ele>33</ele>
        <time>2011-08-24T17:05:23.000Z</time>
      </trkpt>
      <trkpt lat="47.3194" lon="-1.62291">
        <ele>35</ele>
        <time>2011-08-24T17:05:28.000Z</time>
      </trkpt>
      <trkpt lat="47.31925" lon="-1.62297">
        <ele>38</ele>
        <time>2011-08-24T17:05:37.000Z</time>
      </trkpt>
      <trkpt lat="47.31947" lon="-1.62293">
        <ele>33.799999237061</ele>
        <time>2011-08-24T17:05:53.000Z</time>
      </trkpt>
      <trkpt lat="47.31949" lon="-1.62289">
        <ele>33.400001525879</ele>
        <time>2011-08-24T17:06:31.000Z</time>
      </trkpt>
      <trkpt lat="47.31945" lon="-1.62291">
        <ele>34.200000762939</ele>
        <time>2011-08-24T17:06:34.000Z</time>
      </trkpt>
      <trkpt lat="47.31921" lon="-1.62308">
        <ele>38.599998474121</ele>
        <time>2011-08-24T17:07:10.000Z</time>
      </trkpt>
      <trkpt lat="47.31884" lon="-1.62321">
        <ele>38.400001525879</ele>
        <time>2011-08-24T17:07:29.000Z</time>
      </trkpt>
      <trkpt lat="47.31884" lon="-1.62383">
        <ele>32.200000762939</ele>
        <time>2011-08-24T17:07:42.000Z</time>
      </trkpt>
      <trkpt lat="47.3187" lon="-1.62424">
        <ele>28</ele>
        <time>2011-08-24T17:07:53.000Z</time>
      </trkpt>
      <trkpt lat="47.31893" lon="-1.62529">
        <ele>23.200000762939</ele>
        <time>2011-08-24T17:08:07.000Z</time>
      </trkpt>
      <trkpt lat="47.31891" lon="-1.6258">
        <ele>22.60000038147</ele>
        <time>2011-08-24T17:08:14.000Z</time>
      </trkpt>
      <trkpt lat="47.31878" lon="-1.62696">
        <ele>25.200000762939</ele>
        <time>2011-08-24T17:08:31.000Z</time>
      </trkpt>
      <trkpt lat="47.31865" lon="-1.62728">
        <ele>27.200000762939</ele>
        <time>2011-08-24T17:08:38.000Z</time>
      </trkpt>
      <trkpt lat="47.31726" lon="-1.62855">
        <ele>33.200000762939</ele>
        <time>2011-08-24T17:09:17.000Z</time>
      </trkpt>
      <trkpt lat="47.3167" lon="-1.62907">
        <ele>35.599998474121</ele>
        <time>2011-08-24T17:09:37.000Z</time>
      </trkpt>
      <trkpt lat="47.31421" lon="-1.6322">
        <ele>46.599998474121</ele>
        <time>2011-08-24T17:11:04.000Z</time>
      </trkpt>
      <trkpt lat="47.31406" lon="-1.63233">
        <ele>47.400001525879</ele>
        <time>2011-08-24T17:11:10.000Z</time>
      </trkpt>
      <trkpt lat="47.31393" lon="-1.63222">
        <ele>48</ele>
        <time>2011-08-24T17:11:14.000Z</time>
      </trkpt>
      <trkpt lat="47.31372" lon="-1.63149">
        <ele>48.400001525879</ele>
        <time>2011-08-24T17:11:26.000Z</time>
      </trkpt>
      <trkpt lat="47.31339" lon="-1.63085">
        <ele>49.599998474121</ele>
        <time>2011-08-24T17:11:37.000Z</time>
      </trkpt>
      <trkpt lat="47.31327" lon="-1.62973">
        <ele>48</ele>
        <time>2011-08-24T17:11:54.000Z</time>
      </trkpt>
      <trkpt lat="47.31318" lon="-1.62956">
        <ele>48.400001525879</ele>
        <time>2011-08-24T17:11:58.000Z</time>
      </trkpt>
      <trkpt lat="47.31288" lon="-1.62986">
        <ele>50.599998474121</ele>
        <time>2011-08-24T17:12:08.000Z</time>
      </trkpt>
      <trkpt lat="47.31273" lon="-1.62993">
        <ele>51.400001525879</ele>
        <time>2011-08-24T17:12:12.000Z</time>
      </trkpt>
      <trkpt lat="47.31254" lon="-1.6299">
        <ele>52.599998474121</ele>
        <time>2011-08-24T17:12:17.000Z</time>
      </trkpt>
      <trkpt lat="47.31239" lon="-1.62919">
        <ele>53.400001525879</ele>
        <time>2011-08-24T17:12:27.000Z</time>
      </trkpt>
      <trkpt lat="47.31213" lon="-1.62877">
        <ele>54.599998474121</ele>
        <time>2011-08-24T17:12:36.000Z</time>
      </trkpt>
      <trkpt lat="47.31183" lon="-1.62774">
        <ele>52.799999237061</ele>
        <time>2011-08-24T17:12:49.000Z</time>
      </trkpt>
      <trkpt lat="47.31148" lon="-1.62709">
        <ele>50.400001525879</ele>
        <time>2011-08-24T17:12:56.000Z</time>
      </trkpt>
      <trkpt lat="47.31112" lon="-1.62675">
        <ele>50.400001525879</ele>
        <time>2011-08-24T17:13:02.000Z</time>
      </trkpt>
      <trkpt lat="47.31076" lon="-1.62656">
        <ele>51.599998474121</ele>
        <time>2011-08-24T17:13:09.000Z</time>
      </trkpt>
      <trkpt lat="47.31035" lon="-1.6266">
        <ele>54.599998474121</ele>
        <time>2011-08-24T17:13:18.000Z</time>
      </trkpt>
      <trkpt lat="47.31024" lon="-1.62653">
        <ele>55.200000762939</ele>
        <time>2011-08-24T17:13:22.000Z</time>
      </trkpt>
      <trkpt lat="47.31052" lon="-1.62606">
        <ele>51</ele>
        <time>2011-08-24T17:13:35.000Z</time>
      </trkpt>
      <trkpt lat="47.31058" lon="-1.62568">
        <ele>49.200000762939</ele>
        <time>2011-08-24T17:13:41.000Z</time>
      </trkpt>
      <trkpt lat="47.31054" lon="-1.6251">
        <ele>49.799999237061</ele>
        <time>2011-08-24T17:13:52.000Z</time>
      </trkpt>
      <trkpt lat="47.31048" lon="-1.62492">
        <ele>50.200000762939</ele>
        <time>2011-08-24T17:13:57.000Z</time>
      </trkpt>
      <trkpt lat="47.31035" lon="-1.6249">
        <ele>51.400001525879</ele>
        <time>2011-08-24T17:14:02.000Z</time>
      </trkpt>
      <trkpt lat="47.3103" lon="-1.62503">
        <ele>52</ele>
        <time>2011-08-24T17:14:06.000Z</time>
      </trkpt>
      <trkpt lat="47.3102" lon="-1.62507">
        <ele>53.200000762939</ele>
        <time>2011-08-24T17:14:09.000Z</time>
      </trkpt>
      <trkpt lat="47.30966" lon="-1.62505">
        <ele>56.200000762939</ele>
        <time>2011-08-24T17:14:24.000Z</time>
      </trkpt>
      <trkpt lat="47.30942" lon="-1.62514">
        <ele>57</ele>
        <time>2011-08-24T17:14:31.000Z</time>
      </trkpt>
      <trkpt lat="47.30895" lon="-1.62512">
        <ele>58.799999237061</ele>
        <time>2011-08-24T17:14:42.000Z</time>
      </trkpt>
      <trkpt lat="47.30855" lon="-1.6252">
        <ele>60.200000762939</ele>
        <time>2011-08-24T17:14:53.000Z</time>
      </trkpt>
      <trkpt lat="47.30848" lon="-1.62514">
        <ele>60.799999237061</ele>
        <time>2011-08-24T17:14:58.000Z</time>
      </trkpt>
      <trkpt lat="47.30837" lon="-1.62317">
        <ele>61.400001525879</ele>
        <time>2011-08-24T17:15:40.000Z</time>
      </trkpt>
      <trkpt lat="47.3078" lon="-1.62254">
        <ele>62.200000762939</ele>
        <time>2011-08-24T17:16:10.000Z</time>
      </trkpt>
      <trkpt lat="47.30782" lon="-1.62239">
        <ele>62.400001525879</ele>
        <time>2011-08-24T17:16:14.000Z</time>
      </trkpt>
      <trkpt lat="47.30852" lon="-1.62076">
        <ele>62.200000762939</ele>
        <time>2011-08-24T17:16:47.000Z</time>
      </trkpt>
      <trkpt lat="47.30885" lon="-1.61965">
        <ele>60.200000762939</ele>
        <time>2011-08-24T17:17:02.000Z</time>
      </trkpt>
      <trkpt lat="47.30912" lon="-1.61913">
        <ele>58</ele>
        <time>2011-08-24T17:17:10.000Z</time>
      </trkpt>
      <trkpt lat="47.30919" lon="-1.61885">
        <ele>57.200000762939</ele>
        <time>2011-08-24T17:17:14.000Z</time>
      </trkpt>
      <trkpt lat="47.30912" lon="-1.61847">
        <ele>56.400001525879</ele>
        <time>2011-08-24T17:17:30.000Z</time>
      </trkpt>
      <trkpt lat="47.30902" lon="-1.61823">
        <ele>56.599998474121</ele>
        <time>2011-08-24T17:17:37.000Z</time>
      </trkpt>
      <trkpt lat="47.30904" lon="-1.61752">
        <ele>55</ele>
        <time>2011-08-24T17:17:45.000Z</time>
      </trkpt>
      <trkpt lat="47.30893" lon="-1.61724">
        <ele>55.200000762939</ele>
        <time>2011-08-24T17:17:49.000Z</time>
      </trkpt>
      <trkpt lat="47.30833" lon="-1.61709">
        <ele>59.400001525879</ele>
        <time>2011-08-24T17:18:04.000Z</time>
      </trkpt>
      <trkpt lat="47.30846" lon="-1.61711">
        <ele>58.599998474121</ele>
        <time>2011-08-24T17:18:16.000Z</time>
      </trkpt>
      <trkpt lat="47.30846" lon="-1.61716">
        <ele>58.599998474121</ele>
        <time>2011-08-24T17:18:20.000Z</time>
      </trkpt>
      <trkpt lat="47.30822" lon="-1.61718">
        <ele>60.200000762939</ele>
        <time>2011-08-24T17:18:27.000Z</time>
      </trkpt>
      <trkpt lat="47.30818" lon="-1.61711">
        <ele>60.200000762939</ele>
        <time>2011-08-24T17:18:30.000Z</time>
      </trkpt>
      <trkpt lat="47.30803" lon="-1.61716">
        <ele>61</ele>
        <time>2011-08-24T17:18:37.000Z</time>
      </trkpt>
      <trkpt lat="47.30773" lon="-1.61662">
        <ele>61.200000762939</ele>
        <time>2011-08-24T17:19:01.000Z</time>
      </trkpt>
      <trkpt lat="47.30756" lon="-1.61647">
        <ele>61.200000762939</ele>
        <time>2011-08-24T17:19:13.000Z</time>
      </trkpt>
      <trkpt lat="47.3076" lon="-1.61602">
        <ele>57.599998474121</ele>
        <time>2011-08-24T17:19:22.000Z</time>
      </trkpt>
      <trkpt lat="47.30741" lon="-1.61508">
        <ele>50.799999237061</ele>
        <time>2011-08-24T17:19:39.000Z</time>
      </trkpt>
      <trkpt lat="47.30707" lon="-1.61488">
        <ele>50.599998474121</ele>
        <time>2011-08-24T17:19:49.000Z</time>
      </trkpt>
      <trkpt lat="47.30674" lon="-1.61482">
        <ele>51</ele>
        <time>2011-08-24T17:19:59.000Z</time>
      </trkpt>
      <trkpt lat="47.30657" lon="-1.61484">
        <ele>51.599998474121</ele>
        <time>2011-08-24T17:20:05.000Z</time>
      </trkpt>
      <trkpt lat="47.30505" lon="-1.6154">
        <ele>54</ele>
        <time>2011-08-24T17:20:58.000Z</time>
      </trkpt>
      <trkpt lat="47.30496" lon="-1.61527">
        <ele>53.799999237061</ele>
        <time>2011-08-24T17:21:02.000Z</time>
      </trkpt>
      <trkpt lat="47.30471" lon="-1.61319">
        <ele>49.799999237061</ele>
        <time>2011-08-24T17:21:31.000Z</time>
      </trkpt>
      <trkpt lat="47.30477" lon="-1.61274">
        <ele>49.400001525879</ele>
        <time>2011-08-24T17:21:36.000Z</time>
      </trkpt>
      <trkpt lat="47.30473" lon="-1.61254">
        <ele>49</ele>
        <time>2011-08-24T17:21:39.000Z</time>
      </trkpt>
      <trkpt lat="47.30436" lon="-1.61214">
        <ele>48.200000762939</ele>
        <time>2011-08-24T17:21:46.000Z</time>
      </trkpt>
      <trkpt lat="47.30372" lon="-1.61222">
        <ele>48.400001525879</ele>
        <time>2011-08-24T17:22:04.000Z</time>
      </trkpt>
      <trkpt lat="47.30316" lon="-1.61177">
        <ele>51.200000762939</ele>
        <time>2011-08-24T17:22:25.000Z</time>
      </trkpt>
      <trkpt lat="47.30301" lon="-1.61158">
        <ele>51.799999237061</ele>
        <time>2011-08-24T17:22:31.000Z</time>
      </trkpt>
      <trkpt lat="47.30301" lon="-1.61044">
        <ele>56</ele>
        <time>2011-08-24T17:23:01.000Z</time>
      </trkpt>
      <trkpt lat="47.30316" lon="-1.60926">
        <ele>60</ele>
        <time>2011-08-24T17:23:29.000Z</time>
      </trkpt>
      <trkpt lat="47.30316" lon="-1.60849">
        <ele>59.599998474121</ele>
        <time>2011-08-24T17:23:43.000Z</time>
      </trkpt>
      <trkpt lat="47.30024" lon="-1.60443">
        <ele>63</ele>
        <time>2011-08-24T17:25:43.000Z</time>
      </trkpt>
      <trkpt lat="47.30003" lon="-1.6042">
        <ele>63.799999237061</ele>
        <time>2011-08-24T17:25:52.000Z</time>
      </trkpt>
      <trkpt lat="47.29925" lon="-1.60465">
        <ele>64.400001525879</ele>
        <time>2011-08-24T17:26:15.000Z</time>
      </trkpt>
      <trkpt lat="47.29627" lon="-1.60765">
        <ele>65</ele>
        <time>2011-08-24T17:27:31.000Z</time>
      </trkpt>
      <trkpt lat="47.29614" lon="-1.60759">
        <ele>64.599998474121</ele>
        <time>2011-08-24T17:27:35.000Z</time>
      </trkpt>
      <trkpt lat="47.29559" lon="-1.60621">
        <ele>62.599998474121</ele>
        <time>2011-08-24T17:27:53.000Z</time>
      </trkpt>
      <trkpt lat="47.29404" lon="-1.60293">
        <ele>57.599998474121</ele>
        <time>2011-08-24T17:28:34.000Z</time>
      </trkpt>
      <trkpt lat="47.29391" lon="-1.60302">
        <ele>57</ele>
        <time>2011-08-24T17:28:38.000Z</time>
      </trkpt>
      <trkpt lat="47.29292" lon="-1.6045">
        <ele>56</ele>
        <time>2011-08-24T17:29:01.000Z</time>
      </trkpt>
      <trkpt lat="47.29241" lon="-1.60482">
        <ele>56.599998474121</ele>
        <time>2011-08-24T17:29:09.000Z</time>
      </trkpt>
      <trkpt lat="47.29224" lon="-1.60497">
        <ele>56.799999237061</ele>
        <time>2011-08-24T17:29:12.000Z</time>
      </trkpt>
      <trkpt lat="47.29132" lon="-1.60714">
        <ele>61.400001525879</ele>
        <time>2011-08-24T17:29:41.000Z</time>
      </trkpt>
      <trkpt lat="47.29082" lon="-1.60776">
        <ele>62</ele>
        <time>2011-08-24T17:29:52.000Z</time>
      </trkpt>
      <trkpt lat="47.29041" lon="-1.60842">
        <ele>62.200000762939</ele>
        <time>2011-08-24T17:30:25.000Z</time>
      </trkpt>
      <trkpt lat="47.29065" lon="-1.60821">
        <ele>62</ele>
        <time>2011-08-24T17:31:11.000Z</time>
      </trkpt>
      <trkpt lat="47.29052" lon="-1.60827">
        <ele>62</ele>
        <time>2011-08-24T17:32:29.000Z</time>
      </trkpt>
      <trkpt lat="47.28964" lon="-1.60973">
        <ele>63.599998474121</ele>
        <time>2011-08-24T17:32:58.000Z</time>
      </trkpt>
      <trkpt lat="47.2896" lon="-1.60997">
        <ele>63.400001525879</ele>
        <time>2011-08-24T17:33:02.000Z</time>
      </trkpt>
      <trkpt lat="47.28968" lon="-1.6101">
        <ele>63.200000762939</ele>
        <time>2011-08-24T17:33:04.000Z</time>
      </trkpt>
      <trkpt lat="47.29069" lon="-1.61111">
        <ele>61.599998474121</ele>
        <time>2011-08-24T17:33:21.000Z</time>
      </trkpt>
      <trkpt lat="47.29114" lon="-1.61171">
        <ele>60.400001525879</ele>
        <time>2011-08-24T17:33:29.000Z</time>
      </trkpt>
      <trkpt lat="47.29174" lon="-1.6131">
        <ele>57.599998474121</ele>
        <time>2011-08-24T17:33:44.000Z</time>
      </trkpt>
      <trkpt lat="47.2926" lon="-1.61475">
        <ele>59.599998474121</ele>
        <time>2011-08-24T17:34:03.000Z</time>
      </trkpt>
      <trkpt lat="47.29269" lon="-1.61512">
        <ele>59</ele>
        <time>2011-08-24T17:34:08.000Z</time>
      </trkpt>
      <trkpt lat="47.29198" lon="-1.61613">
        <ele>59.400001525879</ele>
        <time>2011-08-24T17:34:21.000Z</time>
      </trkpt>
      <trkpt lat="47.29159" lon="-1.61658">
        <ele>60.200000762939</ele>
        <time>2011-08-24T17:34:29.000Z</time>
      </trkpt>
      <trkpt lat="47.29144" lon="-1.61686">
        <ele>60.799999237061</ele>
        <time>2011-08-24T17:34:33.000Z</time>
      </trkpt>
      <trkpt lat="47.29123" lon="-1.61763">
        <ele>61.599998474121</ele>
        <time>2011-08-24T17:34:44.000Z</time>
      </trkpt>
      <trkpt lat="47.29099" lon="-1.61795">
        <ele>62.799999237061</ele>
        <time>2011-08-24T17:34:52.000Z</time>
      </trkpt>
      <trkpt lat="47.29076" lon="-1.6193">
        <ele>59.599998474121</ele>
        <time>2011-08-24T17:35:09.000Z</time>
      </trkpt>
      <trkpt lat="47.29014" lon="-1.61988">
        <ele>56</ele>
        <time>2011-08-24T17:35:20.000Z</time>
      </trkpt>
      <trkpt lat="47.28904" lon="-1.62023">
        <ele>48.799999237061</ele>
        <time>2011-08-24T17:35:35.000Z</time>
      </trkpt>
      <trkpt lat="47.28874" lon="-1.6204">
        <ele>47.200000762939</ele>
        <time>2011-08-24T17:35:40.000Z</time>
      </trkpt>
      <trkpt lat="47.28835" lon="-1.62065">
        <ele>45.799999237061</ele>
        <time>2011-08-24T17:35:46.000Z</time>
      </trkpt>
      <trkpt lat="47.28823" lon="-1.62095">
        <ele>45.799999237061</ele>
        <time>2011-08-24T17:35:51.000Z</time>
      </trkpt>
      <trkpt lat="47.28814" lon="-1.62136">
        <ele>47</ele>
        <time>2011-08-24T17:35:58.000Z</time>
      </trkpt>
      <trkpt lat="47.28788" lon="-1.62192">
        <ele>49.400001525879</ele>
        <time>2011-08-24T17:36:07.000Z</time>
      </trkpt>
      <trkpt lat="47.28792" lon="-1.62209">
        <ele>50.799999237061</ele>
        <time>2011-08-24T17:36:11.000Z</time>
      </trkpt>
      <trkpt lat="47.28807" lon="-1.62209">
        <ele>51.200000762939</ele>
        <time>2011-08-24T17:36:16.000Z</time>
      </trkpt>
      <trkpt lat="47.28966" lon="-1.62301">
        <ele>54.400001525879</ele>
        <time>2011-08-24T17:37:00.000Z</time>
      </trkpt>
      <trkpt lat="47.28994" lon="-1.62291">
        <ele>52.200000762939</ele>
        <time>2011-08-24T17:37:05.000Z</time>
      </trkpt>
      <trkpt lat="47.29018" lon="-1.62334">
        <ele>53</ele>
        <time>2011-08-24T17:37:12.000Z</time>
      </trkpt>
      <trkpt lat="47.29026" lon="-1.62383">
        <ele>53.200000762939</ele>
        <time>2011-08-24T17:37:17.000Z</time>
      </trkpt>
      <trkpt lat="47.29022" lon="-1.62458">
        <ele>54.799999237061</ele>
        <time>2011-08-24T17:37:26.000Z</time>
      </trkpt>
      <trkpt lat="47.29014" lon="-1.62475">
        <ele>56.400001525879</ele>
        <time>2011-08-24T17:37:30.000Z</time>
      </trkpt>
      <trkpt lat="47.28986" lon="-1.62505">
        <ele>59</ele>
        <time>2011-08-24T17:37:39.000Z</time>
      </trkpt>
      <trkpt lat="47.28947" lon="-1.62533">
        <ele>59</ele>
        <time>2011-08-24T17:37:49.000Z</time>
      </trkpt>
      <trkpt lat="47.28861" lon="-1.62589">
        <ele>61</ele>
        <time>2011-08-24T17:38:14.000Z</time>
      </trkpt>
      <trkpt lat="47.28848" lon="-1.62591">
        <ele>61.200000762939</ele>
        <time>2011-08-24T17:38:18.000Z</time>
      </trkpt>
      <trkpt lat="47.28823" lon="-1.62576">
        <ele>61.599998474121</ele>
        <time>2011-08-24T17:38:28.000Z</time>
      </trkpt>
      <trkpt lat="47.28816" lon="-1.62566">
        <ele>61.400001525879</ele>
        <time>2011-08-24T17:38:31.000Z</time>
      </trkpt>
      <trkpt lat="47.28799" lon="-1.62563">
        <ele>61.400001525879</ele>
        <time>2011-08-24T17:38:36.000Z</time>
      </trkpt>
      <trkpt lat="47.28782" lon="-1.62572">
        <ele>61.799999237061</ele>
        <time>2011-08-24T17:38:40.000Z</time>
      </trkpt>
      <trkpt lat="47.28762" lon="-1.62574">
        <ele>61.799999237061</ele>
        <time>2011-08-24T17:38:44.000Z</time>
      </trkpt>
      <trkpt lat="47.28453" lon="-1.62497">
        <ele>52.200000762939</ele>
        <time>2011-08-24T17:39:32.000Z</time>
      </trkpt>
      <trkpt lat="47.28408" lon="-1.62492">
        <ele>51</ele>
        <time>2011-08-24T17:39:38.000Z</time>
      </trkpt>
      <trkpt lat="47.28351" lon="-1.62507">
        <ele>47</ele>
        <time>2011-08-24T17:39:46.000Z</time>
      </trkpt>
      <trkpt lat="47.28256" lon="-1.62542">
        <ele>47.799999237061</ele>
        <time>2011-08-24T17:39:59.000Z</time>
      </trkpt>
      <trkpt lat="47.2822" lon="-1.6257">
        <ele>48.599998474121</ele>
        <time>2011-08-24T17:40:06.000Z</time>
      </trkpt>
      <trkpt lat="47.28187" lon="-1.62574">
        <ele>48</ele>
        <time>2011-08-24T17:40:23.000Z</time>
      </trkpt>
      <trkpt lat="47.28108" lon="-1.62542">
        <ele>47.400001525879</ele>
        <time>2011-08-24T17:40:48.000Z</time>
      </trkpt>
      <trkpt lat="47.27999" lon="-1.6252">
        <ele>48.799999237061</ele>
        <time>2011-08-24T17:41:10.000Z</time>
      </trkpt>
      <trkpt lat="47.27979" lon="-1.6251">
        <ele>48.400001525879</ele>
        <time>2011-08-24T17:41:15.000Z</time>
      </trkpt>
      <trkpt lat="47.27947" lon="-1.62456">
        <ele>45.799999237061</ele>
        <time>2011-08-24T17:41:25.000Z</time>
      </trkpt>
      <trkpt lat="47.27928" lon="-1.62443">
        <ele>45</ele>
        <time>2011-08-24T17:41:28.000Z</time>
      </trkpt>
      <trkpt lat="47.27889" lon="-1.62437">
        <ele>44.400001525879</ele>
        <time>2011-08-24T17:41:33.000Z</time>
      </trkpt>
      <trkpt lat="47.27874" lon="-1.62426">
        <ele>44.200000762939</ele>
        <time>2011-08-24T17:41:36.000Z</time>
      </trkpt>
      <trkpt lat="47.27881" lon="-1.62415">
        <ele>43.799999237061</ele>
        <time>2011-08-24T17:41:41.000Z</time>
      </trkpt>
      <trkpt lat="47.27913" lon="-1.62409">
        <ele>43.599998474121</ele>
        <time>2011-08-24T17:41:49.000Z</time>
      </trkpt>
      <trkpt lat="47.27941" lon="-1.62394">
        <ele>43.400001525879</ele>
        <time>2011-08-24T17:41:55.000Z</time>
      </trkpt>
      <trkpt lat="47.27966" lon="-1.62364">
        <ele>43.400001525879</ele>
        <time>2011-08-24T17:42:00.000Z</time>
      </trkpt>
      <trkpt lat="47.27966" lon="-1.62336">
        <ele>43</ele>
        <time>2011-08-24T17:42:03.000Z</time>
      </trkpt>
      <trkpt lat="47.27947" lon="-1.62306">
        <ele>41.799999237061</ele>
        <time>2011-08-24T17:42:08.000Z</time>
      </trkpt>
      <trkpt lat="47.27934" lon="-1.62267">
        <ele>40.799999237061</ele>
        <time>2011-08-24T17:42:14.000Z</time>
      </trkpt>
      <trkpt lat="47.27936" lon="-1.62207">
        <ele>41.599998474121</ele>
        <time>2011-08-24T17:42:24.000Z</time>
      </trkpt>
      <trkpt lat="47.27954" lon="-1.62132">
        <ele>43.599998474121</ele>
        <time>2011-08-24T17:42:37.000Z</time>
      </trkpt>
      <trkpt lat="47.27971" lon="-1.62106">
        <ele>44.599998474121</ele>
        <time>2011-08-24T17:42:42.000Z</time>
      </trkpt>
      <trkpt lat="47.28014" lon="-1.62081">
        <ele>46.200000762939</ele>
        <time>2011-08-24T17:42:50.000Z</time>
      </trkpt>
      <trkpt lat="47.28035" lon="-1.62059">
        <ele>46.400001525879</ele>
        <time>2011-08-24T17:42:55.000Z</time>
      </trkpt>
      <trkpt lat="47.2808" lon="-1.61956">
        <ele>49.200000762939</ele>
        <time>2011-08-24T17:43:12.000Z</time>
      </trkpt>
      <trkpt lat="47.28132" lon="-1.6189">
        <ele>54</ele>
        <time>2011-08-24T17:43:27.000Z</time>
      </trkpt>
      <trkpt lat="47.28136" lon="-1.6186">
        <ele>55</ele>
        <time>2011-08-24T17:43:32.000Z</time>
      </trkpt>
      <trkpt lat="47.28078" lon="-1.61754">
        <ele>52.799999237061</ele>
        <time>2011-08-24T17:43:47.000Z</time>
      </trkpt>
      <trkpt lat="47.28052" lon="-1.61703">
        <ele>55</ele>
        <time>2011-08-24T17:43:58.000Z</time>
      </trkpt>
      <trkpt lat="47.28037" lon="-1.61692">
        <ele>55</ele>
        <time>2011-08-24T17:44:03.000Z</time>
      </trkpt>
      <trkpt lat="47.28016" lon="-1.61696">
        <ele>54.799999237061</ele>
        <time>2011-08-24T17:44:08.000Z</time>
      </trkpt>
      <trkpt lat="47.28011" lon="-1.6169">
        <ele>54.799999237061</ele>
        <time>2011-08-24T17:44:09.000Z</time>
      </trkpt>
      <trkpt lat="47.27966" lon="-1.61553">
        <ele>57.799999237061</ele>
        <time>2011-08-24T17:44:32.000Z</time>
      </trkpt>
      <trkpt lat="47.2796" lon="-1.61506">
        <ele>59.200000762939</ele>
        <time>2011-08-24T17:44:42.000Z</time>
      </trkpt>
      <trkpt lat="47.27979" lon="-1.61503">
        <ele>60</ele>
        <time>2011-08-24T17:44:48.000Z</time>
      </trkpt>
      <trkpt lat="47.28026" lon="-1.61484">
        <ele>61</ele>
        <time>2011-08-24T17:45:00.000Z</time>
      </trkpt>
      <trkpt lat="47.28042" lon="-1.61471">
        <ele>60.799999237061</ele>
        <time>2011-08-24T17:45:04.000Z</time>
      </trkpt>
      <trkpt lat="47.2802" lon="-1.61295">
        <ele>60.200000762939</ele>
        <time>2011-08-24T17:45:24.000Z</time>
      </trkpt>
      <trkpt lat="47.27966" lon="-1.61121">
        <ele>56.400001525879</ele>
        <time>2011-08-24T17:45:39.000Z</time>
      </trkpt>
      <trkpt lat="47.27767" lon="-1.60787">
        <ele>43.599998474121</ele>
        <time>2011-08-24T17:46:12.000Z</time>
      </trkpt>
      <trkpt lat="47.27718" lon="-1.60662">
        <ele>46.200000762939</ele>
        <time>2011-08-24T17:46:27.000Z</time>
      </trkpt>
      <trkpt lat="47.27696" lon="-1.60576">
        <ele>48</ele>
        <time>2011-08-24T17:46:42.000Z</time>
      </trkpt>
      <trkpt lat="47.27683" lon="-1.60561">
        <ele>48</ele>
        <time>2011-08-24T17:46:48.000Z</time>
      </trkpt>
      <trkpt lat="47.27393" lon="-1.60589">
        <ele>50.200000762939</ele>
        <time>2011-08-24T17:47:48.000Z</time>
      </trkpt>
      <trkpt lat="47.27093" lon="-1.60873">
        <ele>51</ele>
        <time>2011-08-24T17:48:54.000Z</time>
      </trkpt>
      <trkpt lat="47.27093" lon="-1.60894">
        <ele>51.400001525879</ele>
        <time>2011-08-24T17:48:59.000Z</time>
      </trkpt>
      <trkpt lat="47.27142" lon="-1.60926">
        <ele>50.599998474121</ele>
        <time>2011-08-24T17:49:33.000Z</time>
      </trkpt>
    </trkseg>
  </trk>
</gpx>